Have a Safe July 4th! 

Flight Track Log - Related Links

Times and Time Zones

All times are in EST time to prevent confusion due to time zone crossing. See the N523JM flight status page for this flight to view local times or setup timezone preferences in your user account.

Time Position Orientation Groundspeed Altitude Reporting Facility
EST Latitude Longitude Course Direction KTS MPH feet Rate Location/Type
Mon 10:06:15 AM 40.0758 -83.0858 263° West 178 205 1,200  Level Indianapolis Center
Mon 10:06:51 AM 40.0711 -83.1342 263° West 242 278 2,600 1,125 Climbing Indianapolis Center
Mon 10:07:51 AM 40.0211 -83.1725 210° Southwest 234 269 3,000 380 Climbing Indianapolis Center
Mon 10:08:10 AM 40.0100 -83.1694 168° South 230 265 3,100 2,325 Climbing Indianapolis Center
Mon 10:09:11 AM 39.9486 -83.1292 153° Southeast 240 276 6,100 2,488 Climbing Indianapolis Center
Mon 10:10:13 AM 39.8872 -83.0814 149° Southeast 258 297 8,200 2,081 Climbing Indianapolis Center
Mon 10:11:15 AM 39.7972 -83.0144 150° Southeast 309 356 10,400 2,049 Climbing Indianapolis Center
Mon 10:12:16 AM 39.7106 -82.9483 150° Southeast 356 410 12,400 1,951 Climbing Indianapolis Center
Mon 10:13:18 AM 39.6186 -82.8764 149° Southeast 380 437 14,400 2,000 Climbing Indianapolis Center
Mon 10:14:19 AM 39.5139 -82.8503 169° South 380 437 16,500 1,854 Climbing Indianapolis Center
Mon 10:15:21 AM 39.4083 -82.8306 172° South 382 440 18,200 1,839 Climbing Indianapolis Center
Mon 10:16:23 AM 39.2989 -82.8064 170° South 394 453 20,300 2,049 Climbing Indianapolis Center
Mon 10:17:24 AM 39.1864 -82.7808 170° South 408 470 22,400 2,195 Climbing Indianapolis Center
Mon 10:18:26 AM 39.0556 -82.7522 170° South 412 474 24,800 2,146 Climbing Indianapolis Center
Mon 10:19:27 AM 38.9439 -82.7289 171° South 407 468 26,800 2,000 Climbing Indianapolis Center
Mon 10:20:29 AM 38.8356 -82.7036 170° South 398 458 28,900 2,000 Climbing Indianapolis Center
Mon 10:21:30 AM 38.7325 -82.6825 171° South 382 440 30,900 2,000 Climbing Indianapolis Center
Mon 10:22:32 AM 38.6283 -82.6581 170° South 352 405 33,000 1,805 Climbing Indianapolis Center
Mon 10:23:33 AM 38.5383 -82.6400 171° South 329 379 34,600 1,317 Climbing Indianapolis Center
Mon 10:24:35 AM 38.4525 -82.6225 171° South 314 361 35,700 976 Climbing Indianapolis Center
Mon 10:25:36 AM 38.3672 -82.6044 171° South 310 357 36,600 634 Climbing Indianapolis Center
Mon 10:26:38 AM 38.2808 -82.5858 170° South 313 360 37,000 195 Climbing Indianapolis Center
Mon 10:27:39 AM 38.1886 -82.5667 171° South 330 380 37,000  Level Indianapolis Center
Mon 10:28:41 AM 38.0914 -82.5464 171° South 349 402 37,000  Level Indianapolis Center
Mon 10:29:42 AM 37.9722 -82.5222 171° South 367 422 37,000  Level Indianapolis Center
Mon 10:30:44 AM 37.8653 -82.4992 170° South 382 440 37,000  Level Indianapolis Center
Mon 10:31:45 AM 37.7553 -82.4744 170° South 397 457 37,000  Level Indianapolis Center
Mon 10:32:46 AM 37.6450 -82.4528 171° South 399 459 37,000  Level Indianapolis Center
Mon 10:33:48 AM 37.5336 -82.4306 171° South 401 461 37,000  Level Indianapolis Center
Mon 10:34:49 AM 37.4217 -82.4064 170° South 405 466 37,000  Level Indianapolis Center
Mon 10:35:51 AM 37.3089 -82.3836 171° South 409 471 37,000  Level Indianapolis Center
Mon 10:36:52 AM 37.1961 -82.3600 171° South 408 470 37,000  Level Indianapolis Center
Mon 10:37:54 AM 37.0825 -82.3367 171° South 409 471 37,000  Level Indianapolis Center
Mon 10:38:55 AM 36.9675 -82.3125 170° South 413 475 37,000  Level Indianapolis Center
Mon 10:39:56 AM 36.8314 -82.2856 171° South 418 481 37,000  Level Indianapolis Center
Mon 10:40:58 AM 36.7161 -82.2614 170° South 417 480 37,000  Level Indianapolis Center
Mon 10:41:59 AM 36.5992 -82.2378 171° South 421 484 37,000  Level Indianapolis Center
Mon 10:43:01 AM 36.4806 -82.2136 171° South 425 489 37,000 244 Level Indianapolis Center
Mon 10:44:02 AM 36.3631 -82.1906 171° South 426 490 37,500 439 Climbing Indianapolis Center
Mon 10:45:04 AM 36.2481 -82.1669 171° South 419 482 37,900 244 Climbing Indianapolis Center
Mon 10:46:05 AM 36.1339 -82.1444 171° South 415 478 38,000 42 Climbing Indianapolis Center
Mon 10:47:27 AM 35.9828 -82.1142 171° South 419 482 38,000  Level Atlanta Center
Mon 10:48:27 AM 35.8675 -82.0914 171° South 424 488 38,000  Level Atlanta Center
Mon 10:49:27 AM 35.7461 -82.0686 171° South 433 498 38,000  Level Atlanta Center
Mon 10:50:27 AM 35.6292 -82.0483 172° South 428 493 38,000  Level Atlanta Center
Mon 10:51:27 AM 35.5164 -82.0486 180° South 423 487 38,000  Level Atlanta Center
Mon 10:52:27 AM 35.4039 -82.0614 185° South 411 473 38,000  Level Atlanta Center
Mon 10:53:27 AM 35.2958 -82.0742 186° South 404 465 38,000  Level Atlanta Center
Mon 10:54:27 AM 35.1853 -82.0897 187° South 404 465 38,000  Level Atlanta Center
Mon 10:55:27 AM 35.0750 -82.1025 185° South 404 465 38,000  Level Atlanta Center
Mon 10:56:27 AM 34.9644 -82.1150 185° South 404 465 38,000  Level Atlanta Center
Mon 10:57:27 AM 34.8542 -82.1253 184° South 404 465 38,000  Level Atlanta Center
Mon 10:58:27 AM 34.7439 -82.1403 186° South 404 465 38,000  Level Atlanta Center
Mon 10:59:27 AM 34.6333 -82.1506 184° South 404 465 38,000  Level Atlanta Center
Mon 11:00:27 AM 34.5208 -82.1631 185° South 404 465 38,000  Level Atlanta Center
Mon 11:01:27 AM 34.4083 -82.1756 185° South 404 465 38,000  Level Atlanta Center
Mon 11:02:27 AM 34.2958 -82.1931 187° South 404 465 38,000  Level Atlanta Center
Mon 11:03:27 AM 34.1833 -82.2058 185° South 404 465 38,000  Level Atlanta Center
Mon 11:04:27 AM 34.0689 -82.2183 185° South 404 465 38,000  Level Atlanta Center
Mon 11:05:27 AM 33.9542 -82.2306 185° South 404 465 38,000  Level Atlanta Center
Mon 11:06:27 AM 33.8417 -82.2406 184° South 409 471 38,000  Level Atlanta Center
Mon 11:07:27 AM 33.7250 -82.2506 184° South 414 476 38,000  Level Atlanta Center
Mon 11:08:27 AM 33.6061 -82.2703 188° South 425 489 38,000  Level Atlanta Center
Mon 11:09:27 AM 33.4767 -82.2631 177° South 420 483 38,000  Level Atlanta Center
Mon 11:10:27 AM 33.3656 -82.2306 166° South 451 519 38,000  Level Atlanta Center
Mon 11:11:27 AM 33.2336 -82.1936 167° South 451 519 38,000  Level Atlanta Center
Mon 11:12:27 AM 33.1203 -82.1589 166° South 456 525 38,000  Level Atlanta Center
Mon 11:14:31 AM 32.8717 -82.0886 167° South 463 533 38,000  Level Jacksonville Center
Mon 11:15:31 AM 32.7483 -82.0528 166° South 458 527 38,000  Level Jacksonville Center
Mon 11:16:31 AM 32.6269 -82.0194 167° South 453 521 38,000  Level Jacksonville Center
Mon 11:17:31 AM 32.4972 -81.9836 167° South 435 501 38,000  Level Jacksonville Center
Mon 11:18:31 AM 32.3761 -81.9506 167° South 440 506 38,000  Level Jacksonville Center
Mon 11:19:31 AM 32.2672 -81.9219 167° South 447 514 38,000  Level Jacksonville Center
Mon 11:20:31 AM 32.1311 -81.8819 166° South 452 520 38,000  Level Jacksonville Center
Mon 11:21:31 AM 32.0203 -81.8511 167° South 452 520 38,000  Level Jacksonville Center
Mon 11:22:31 AM 31.8903 -81.7964 160° South 452 520 38,000  Level Jacksonville Center
Mon 11:23:31 AM 31.7769 -81.7169 149° Southeast 466 536 38,000  Level Jacksonville Center
Mon 11:24:31 AM 31.6758 -81.6378 146° Southeast 486 559 38,000  Level Jacksonville Center
Mon 11:25:31 AM 31.5497 -81.5492 149° Southeast 486 559 38,000  Level Jacksonville Center
Mon 11:26:31 AM 31.4389 -81.5242 169° South 453 521 38,000  Level Jacksonville Center
Mon 11:27:31 AM 31.3050 -81.4992 171° South 453 521 38,000  Level Jacksonville Center
Mon 11:28:31 AM 31.1794 -81.4744 170° South 446 513 38,000  Level Jacksonville Center
Mon 11:29:31 AM 31.0558 -81.4497 170° South 451 519 38,000  Level Jacksonville Center
Mon 11:30:31 AM 30.9325 -81.4272 171° South 451 519 38,000  Level Jacksonville Center
Mon 11:31:31 AM 30.8089 -81.4003 169° South 451 519 38,000  Level Jacksonville Center
Mon 11:32:31 AM 30.6856 -81.3756 170° South 451 519 38,000  Level Jacksonville Center
Mon 11:33:31 AM 30.5578 -81.3533 171° South 451 519 38,000  Level Jacksonville Center
Mon 11:34:31 AM 30.4322 -81.3289 170° South 451 519 38,000  Level Jacksonville Center
Mon 11:35:31 AM 30.3047 -81.3047 171° South 456 525 38,000  Level Jacksonville Center
Mon 11:36:31 AM 30.1769 -81.2803 171° South 461 531 38,000  Level Jacksonville Center
Mon 11:37:31 AM 30.0494 -81.2561 171° South 466 536 38,000  Level Jacksonville Center
Mon 11:38:31 AM 29.9217 -81.2319 171° South 466 536 38,000  Level Jacksonville Center
Mon 11:39:31 AM 29.7983 -81.2100 171° South 466 536 38,000  Level Jacksonville Center
Mon 11:40:31 AM 29.6683 -81.1861 171° South 466 536 38,000  Level Jacksonville Center
Mon 11:41:31 AM 29.5428 -81.1594 170° South 466 536 38,000  Level Jacksonville Center
Mon 11:42:31 AM 29.4256 -81.1378 171° South 466 536 38,000  Level Jacksonville Center
Mon 11:43:31 AM 29.2981 -81.1092 169° South 471 542 38,000 -312 Level Jacksonville Center
Mon 11:45:24 AM 29.0603 -80.9422 148° Southeast 484 557 37,100 -624 Descending Miami Center
Mon 11:46:24 AM 28.9419 -80.8550 147° Southeast 495 570 36,200 -550 Descending Miami Center
Mon 11:47:24 AM 28.8275 -80.7703 147° Southeast 507 583 36,000 -100 Descending Miami Center
Mon 11:48:24 AM 28.7211 -80.6933 148° Southeast 502 578 36,000 -800 Level Miami Center
Mon 11:49:24 AM 28.6042 -80.6158 150° Southeast 502 578 34,400 -1,950 Descending Miami Center
Mon 11:50:24 AM 28.4636 -80.5639 162° South 489 563 32,100 -2,150 Descending Miami Center
Mon 11:51:24 AM 28.3314 -80.5100 160° South 490 564 30,100 -2,000 Descending Miami Center
Mon 11:52:24 AM 28.2072 -80.4661 163° South 485 558 28,100 -1,950 Descending Miami Center
Mon 11:53:24 AM 28.0917 -80.4222 161° South 485 558 26,200 -1,950 Descending Miami Center
Mon 11:54:24 AM 27.9675 -80.3761 162° South 480 552 24,200 -2,200 Descending Miami Center
Mon 11:55:24 AM 27.8456 -80.3300 162° South 473 544 21,800 -2,700 Descending Miami Center
Mon 11:56:24 AM 27.7358 -80.2914 163° South 447 514 18,800 -2,950 Descending Miami Center
Mon 11:57:24 AM 27.6303 -80.2508 161° South 387 445 15,900 -2,450 Descending Miami Center
Mon 11:58:24 AM 27.5494 -80.2228 163° South 348 400 13,900 -2,000 Descending Miami Center
Mon 11:59:24 AM 27.4667 -80.1900 161° South 325 374 11,900 -1,950 Descending Miami Center
Mon 12:00:24 PM 27.3839 -80.1594 162° South 296 341 10,000 -950 Descending Miami Center
Mon 12:01:24 PM 27.3114 -80.1364 164° South 282 325 10,000 -50 Level Miami Center
Mon 12:02:24 PM 27.2386 -80.1156 166° South 277 319 9,900 -800 Descending Miami Center
Mon 12:03:24 PM 27.1831 -80.0814 151° Southeast 261 300 8,400 -1,750 Descending Miami Center
Mon 12:04:24 PM 27.1150 -80.0397 151° Southeast 256 295 6,400 -1,950 Descending Miami Center
Mon 12:05:24 PM 27.0533 -80.0031 152° Southeast 256 295 4,500 -1,650 Descending Miami Center
Mon 12:06:24 PM 26.9892 -79.9733 158° South 256 295 3,100 -750 Descending Miami Center
Mon 12:07:24 PM 26.9247 -79.9600 170° South 250 288 3,000 -100 Descending Miami Center
Mon 12:09:00 PM 26.8000 -80.1021 270° West  Level FlightAware Approximate
Mon 12:16:00 PM 26.6832 -80.0956 110° East  Level Estimated
Mon 12:17:00 PM 26.6832 -80.0956 110° East  Level Estimated
Mon 12:18:00 PM 26.6832 -80.0956 110° East  Level Estimated
Mon 12:19:00 PM 26.6832 -80.0956 110° East  Level Estimated
Mon 12:20:00 PM 26.6832 -80.0956 110° East  Level Estimated
Mon 12:21:00 PM 26.6832 -80.0956 110° East  Level Estimated
Mon 12:22:00 PM 26.6832 -80.0956 110° East  Level Estimated
Mon 12:23:00 PM 26.6832 -80.0956 110° East  Level Estimated
Mon 12:24:00 PM 26.6832 -80.0956 110° East  Level Estimated

Login

Don't have an account? Register now (free) for customized features, flight alerts, and more!